• Join FlightAware (Why Join?)
  • Login
  • US Flag 
06:02AM EDT


 

Airport Tracker/Info


-or-


 

Live Flight TrackerFlight Track Log ✈ N741FX ✈ 09-Jul-2014 ✈ KSJT - KAUS

Flight Track Log - Related Links

Times and Time Zones

All times are in EDT time to prevent confusion due to time zone crossing. See the N741FX flight status page for this flight to view local times or setup timezone preferences in your user account.

Time Position Orientation Groundspeed Altitude Reporting Facility
EDT Latitude Longitude Course Direction KTS MPH feet Rate Location/Type
08:54PM 31.2967 -100.4956 113° Southeast 111 128 4,400  Level Fort Worth Center
08:55PM 31.2836 -100.4575 112° Southeast 125 144 5,000 480 Climbing Fort Worth Center
08:56PM 31.2697 -100.4142 111° Southeast 130 150 5,500 480 Climbing Fort Worth Center
08:57PM 31.2567 -100.3711 110° East 135 155 6,100 480 Climbing Fort Worth Center
08:58PM 31.3500 -100.4748 113° Southeast  Level FlightAware Approximate
08:58PM 31.2425 -100.3261 110° East 135 155 6,600  Level Fort Worth Center
08:59PM 31.3358 -100.4358 113° Southeast  Level FlightAware Approximate
08:59PM 31.2283 -100.2839 111° Southeast 137 158 7,000  Level Fort Worth Center
09:00PM 31.2128 -100.2403 113° Southeast 143 165 6,900  Descending Fort Worth Center
09:01PM 31.1997 -100.1925 108° East 143 165 7,000  Climbing Fort Worth Center
09:02PM 31.1878 -100.1456 107° East 145 167 7,000 -60 Level Fort Worth Center
09:03PM 31.1736 -100.0986 109° East 145 167 6,900  Descending Fort Worth Center
09:04PM 31.1606 -100.0528 108° East 146 168 7,000  Climbing Fort Worth Center
09:05PM 31.1472 -100.0053 108° East 145 167 6,900  Descending Fort Worth Center
09:06PM 31.1353 -99.9594 107° East 145 167 7,000  Climbing Fort Worth Center
09:07PM 31.1203 -99.9139 111° Southeast 147 169 7,000  Level Fort Worth Center
09:08PM 31.1022 -99.8675 114° Southeast 147 169 7,000  Level Fort Worth Center
09:09PM 31.0836 -99.8236 116° Southeast 148 170 7,000  Level Fort Worth Center
09:10PM 31.0650 -99.7772 115° Southeast 148 170 7,000  Level Fort Worth Center
09:11PM 31.0481 -99.7361 116° Southeast 147 169 7,000  Level Houston Center
09:12PM 31.0303 -99.6931 116° Southeast 147 169 7,000  Level Houston Center
09:13PM 31.0144 -99.6500 113° Southeast 147 169 7,000  Level Houston Center
09:14PM 30.9964 -99.6075 116° Southeast 147 169 7,000  Level Houston Center
09:15PM 30.9794 -99.5639 114° Southeast 147 169 7,000  Level Houston Center
09:16PM 30.9614 -99.5206 116° Southeast 147 169 7,000  Level Houston Center
09:17PM 30.9447 -99.4778 114° Southeast 147 169 7,000 -60 Level Houston Center
09:18PM 30.9272 -99.4364 116° Southeast 147 169 6,900  Descending Houston Center
09:19PM 30.9061 -99.3833 115° Southeast 147 169 7,000  Climbing Houston Center
09:20PM 30.8892 -99.3406 115° Southeast 147 169 7,000  Level Houston Center
09:21PM 30.8706 -99.2961 116° Southeast 148 170 7,000  Level Houston Center
09:23PM 30.8528 -99.2539 116° Southeast 148 170 7,000  Level Houston Center
09:24PM 30.8356 -99.2106 115° Southeast 148 170 7,000  Level Houston Center
09:25PM 30.8178 -99.1681 116° Southeast 148 170 7,000  Level Houston Center
09:26PM 30.7994 -99.1233 116° Southeast 148 170 7,100  Climbing Houston Center
09:27PM 30.7831 -99.0800 114° Southeast 148 170 7,100  Level Houston Center
09:28PM 30.7653 -99.0367 116° Southeast 148 170 7,100  Level Houston Center
09:29PM 30.7433 -98.9844 116° Southeast 148 170 7,100  Level Houston Center
09:30PM 30.7258 -98.9406 115° Southeast 148 170 7,100  Level Houston Center
09:31PM 30.7078 -98.8967 116° Southeast 148 170 7,100  Level Houston Center
09:32PM 30.6886 -98.8536 117° Southeast 148 170 7,100  Level Houston Center
09:33PM 30.6722 -98.8100 114° Southeast 148 170 7,100  Level Houston Center
09:34PM 30.6542 -98.7669 116° Southeast 148 170 7,100  Level Houston Center
09:35PM 30.6361 -98.7239 116° Southeast 148 170 7,100  Level Houston Center
09:36PM 30.6181 -98.6814 116° Southeast 149 171 7,100  Level Houston Center
09:37PM 30.5992 -98.6375 117° Southeast 148 170 7,100  Level Houston Center
09:38PM 30.5778 -98.5856 116° Southeast 149 171 7,100  Level Houston Center
09:39PM 30.5606 -98.5417 114° Southeast 149 171 7,100 -60 Level Houston Center
09:40PM 30.5419 -98.4981 116° Southeast 149 171 7,000 -60 Descending Houston Center
09:41PM 30.5242 -98.4547 115° Southeast 149 171 7,000 -180 Level Houston Center
09:42PM 30.5050 -98.4100 116° Southeast 150 173 6,700 -300 Descending Houston Center
09:43PM 30.4864 -98.3644 115° Southeast 153 176 6,500 -300 Descending Houston Center
09:44PM 30.4669 -98.3203 117° Southeast 153 176 6,200 -180 Descending Houston Center
09:50PM 30.3571 -98.0557 122° Southeast 94 108 5,300 -180 Descending FlightAware ADS-B (KGTU)
09:53PM 30.2997 -97.9196 116° Southeast 147 169 4,900 -300 Descending FlightAware ADS-B (KGTU)
09:54PM 30.2917 -97.8636 116° Southeast 161 185 4,200 -600 Descending Houston Center
09:55PM 30.2892 -97.8097 93° East 167 192 3,600 -780 Descending Houston Center
09:56PM 30.2669 -97.7544 115° Southeast 164 189 2,700 -960 Descending Houston Center
09:57PM 30.2431 -97.7108 122° Southeast 163 188 1,700 -840 Descending Houston Center
09:58PM 30.2225 -97.6750 124° Southeast 152 175 1,000 -720 Descending Houston Center
10:00PM 30.1945 -97.6699 111° Southeast  Level Estimated
10:07PM 30.1945 -97.6699 111° Southeast  Level Estimated
10:08PM 30.1945 -97.6699 166° South  Level Estimated